createdAt,value
2023-05-20T00:00:32.329Z,102452.59
2023-05-20T00:03:01.382Z,102444.75
2023-05-20T00:05:30.375Z,102449.72
2023-05-20T00:08:00.617Z,102447.34
2023-05-20T00:10:27.585Z,102456.69
2023-05-20T00:12:56.649Z,102464.28
2023-05-20T00:15:23.407Z,102457.22
2023-05-20T00:17:52.402Z,102445.25
2023-05-20T00:20:22.236Z,102447.84
2023-05-20T00:22:51.091Z,102447.59
2023-05-20T00:25:17.757Z,102460.44
2023-05-20T00:27:47.352Z,102449.72
2023-05-20T00:30:16.560Z,102461.78
2023-05-20T00:32:43.177Z,102439.63
2023-05-20T00:35:13.112Z,102445.47
2023-05-20T00:37:39.823Z,102442.84
2023-05-20T00:40:07.401Z,102446.84
2023-05-20T00:42:34.054Z,102452.44
2023-05-20T00:45:03.153Z,102447.31
2023-05-20T00:47:34.482Z,102448.84
2023-05-20T00:50:04.044Z,102452.44
2023-05-20T00:52:32.784Z,102432.91
2023-05-20T00:55:00.034Z,102443.34
2023-05-20T00:57:28.910Z,102432.78
2023-05-20T01:00:00.468Z,102435.75
2023-05-20T01:02:27.624Z,102436.22
2023-05-20T01:04:56.673Z,102433.63
2023-05-20T01:07:23.920Z,102431.72
2023-05-20T01:09:54.496Z,102437.84
2023-05-20T01:12:30.615Z,102430.31
2023-05-20T01:15:07.464Z,102434.03
2023-05-20T01:17:49.962Z,102431.16
2023-05-20T01:20:18.945Z,102435.13
2023-05-20T01:22:57.033Z,102436.22
2023-05-20T01:25:27.573Z,102429.25
2023-05-20T01:28:03.577Z,102429.38
2023-05-20T01:30:37.213Z,102418.91
2023-05-20T01:33:11.332Z,102427.56
2023-05-20T01:35:41.481Z,102418.53
2023-05-20T01:38:08.630Z,102424.09
2023-05-20T01:40:36.091Z,102372.31
2023-05-20T01:43:03.518Z,102421.59
2023-05-20T01:45:30.198Z,102422.94
2023-05-20T01:47:59.323Z,102414.09
2023-05-20T01:50:26.861Z,102413.34
2023-05-20T01:52:56.026Z,102412.94
2023-05-20T01:55:25.042Z,102417.41
2023-05-20T01:57:51.786Z,102412.94
2023-05-20T02:00:18.368Z,102411.31
2023-05-20T02:02:45.123Z,102414.16
2023-05-20T02:05:12.153Z,102411.44
2023-05-20T02:07:38.918Z,102415.16
2023-05-20T02:10:06.396Z,102407.31
2023-05-20T02:12:33.045Z,102404.69
2023-05-20T02:14:59.643Z,102413.41
2023-05-20T02:17:26.892Z,102408.19
2023-05-20T02:19:55.845Z,102404.81
2023-05-20T02:22:22.456Z,102409.88
2023-05-20T02:24:49.099Z,102411.31
2023-05-20T02:27:15.715Z,102408.78
2023-05-20T02:29:44.287Z,102401.38
2023-05-20T02:32:11.346Z,102402.25
2023-05-20T02:34:37.986Z,102396.66
2023-05-20T02:37:05.251Z,102404.88
2023-05-20T02:39:32.078Z,102397.66
2023-05-20T02:42:01.249Z,102398.53
2023-05-20T02:44:30.283Z,102388.94
2023-05-20T02:47:01.631Z,102396.78
2023-05-20T02:49:28.192Z,102394.41
2023-05-20T02:51:59.397Z,102395.38
2023-05-20T02:54:28.266Z,102390.16
2023-05-20T02:56:54.875Z,102394.84
2023-05-20T02:59:21.949Z,102394.84
2023-05-20T03:01:51.055Z,102396.81
2023-05-20T03:04:19.362Z,102397.81
2023-05-20T03:06:46.572Z,102399.78
2023-05-20T03:09:14.280Z,102393.56
2023-05-20T03:11:41.037Z,102399.16
2023-05-20T03:14:07.672Z,102392.94
2023-05-20T03:16:35.475Z,102395.88
2023-05-20T03:19:02.693Z,102397.19
2023-05-20T03:21:32.553Z,102396.00
2023-05-20T03:23:59.223Z,102385.66
2023-05-20T03:26:26.030Z,102407.91
2023-05-20T03:28:57.342Z,102382.16
2023-05-20T03:31:24.061Z,102395.59
2023-05-20T03:33:51.064Z,102407.25
2023-05-20T03:36:17.759Z,102402.78
2023-05-20T03:38:46.787Z,102400.03
2023-05-20T03:41:15.737Z,102393.19
2023-05-20T03:43:42.449Z,102396.69
2023-05-20T03:46:09.133Z,102395.03
2023-05-20T03:48:35.740Z,102386.41
2023-05-20T03:51:04.905Z,102389.03
2023-05-20T03:53:31.579Z,102391.88
2023-05-20T03:56:01.680Z,102397.22
2023-05-20T03:58:31.343Z,102391.66
2023-05-20T04:00:58.391Z,102394.16
2023-05-20T04:03:25.179Z,102390.47
2023-05-20T04:05:52.133Z,102377.25
2023-05-20T04:08:18.961Z,102399.06
2023-05-20T04:10:46.474Z,102398.63
2023-05-20T04:13:16.508Z,102377.88
2023-05-20T04:15:43.186Z,102392.44
2023-05-20T04:18:10.449Z,102393.00
2023-05-20T04:20:37.108Z,102392.63
2023-05-20T04:23:03.714Z,102385.97
2023-05-20T04:25:30.398Z,102377.56
2023-05-20T04:27:57.906Z,102386.78
2023-05-20T04:30:27.298Z,102383.06
2023-05-20T04:32:54.834Z,102390.47
2023-05-20T04:35:21.651Z,102389.81
2023-05-20T04:37:48.701Z,102394.47
2023-05-20T04:40:15.445Z,102393.13
2023-05-20T04:42:42.113Z,102386.19
2023-05-20T04:45:09.207Z,102393.34
2023-05-20T04:47:39.004Z,102389.03
2023-05-20T04:50:11.293Z,102388.84
2023-05-20T04:52:47.189Z,102396.84
2023-05-20T04:55:14.167Z,102385.03
2023-05-20T04:57:43.868Z,102380.06
2023-05-20T05:00:12.670Z,102386.19
2023-05-20T05:02:39.623Z,102388.94
2023-05-20T05:05:06.879Z,102382.56
2023-05-20T05:07:33.597Z,102385.50
2023-05-20T05:10:00.203Z,102372.34
2023-05-20T05:12:31.697Z,102370.28
2023-05-20T05:14:58.881Z,102360.94
2023-05-20T05:17:28.860Z,102357.78
2023-05-20T05:19:55.943Z,102363.00
2023-05-20T05:22:22.651Z,102363.13
2023-05-20T05:24:49.249Z,102363.22
2023-05-20T05:27:15.998Z,102357.63
2023-05-20T05:29:42.683Z,102357.63
2023-05-20T05:32:14.403Z,102345.88
2023-05-20T05:34:43.470Z,102358.16
2023-05-20T05:37:10.084Z,102323.44
2023-05-20T05:39:37.879Z,102354.06
2023-05-20T05:42:05.116Z,102353.28
2023-05-20T05:44:31.967Z,102362.41
2023-05-20T05:46:58.683Z,102355.84
2023-05-20T05:49:27.883Z,102351.63
2023-05-20T05:51:54.566Z,102357.44
2023-05-20T05:54:21.404Z,102358.19
2023-05-20T05:56:50.383Z,102357.03
2023-05-20T05:59:17.402Z,102348.84
2023-05-20T06:01:44.053Z,102355.44
2023-05-20T06:04:10.935Z,102351.31
2023-05-20T06:06:40.993Z,102354.69
2023-05-20T06:09:07.847Z,102339.47
2023-05-20T06:11:34.547Z,102344.03
2023-05-20T06:14:02.095Z,102343.91
2023-05-20T06:16:28.753Z,102350.03
2023-05-20T06:18:59.699Z,102342.94
2023-05-20T06:21:28.478Z,102346.16
2023-05-20T06:23:55.147Z,102341.88
2023-05-20T06:26:22.926Z,102336.06
2023-05-20T06:28:52.089Z,102338.19
2023-05-20T06:31:21.452Z,102332.59
2023-05-20T06:33:48.575Z,102327.44
2023-05-20T06:36:15.214Z,102323.16
2023-05-20T06:38:41.805Z,102319.13
2023-05-20T06:41:08.692Z,102319.91
2023-05-20T06:43:37.752Z,102327.47
2023-05-20T06:46:04.870Z,102326.09
2023-05-20T06:48:32.075Z,102320.34
2023-05-20T06:50:58.748Z,102315.34
2023-05-20T06:53:28.020Z,102313.56
2023-05-20T06:56:00.617Z,102308.31
2023-05-20T06:58:28.020Z,102301.91
2023-05-20T07:00:55.026Z,102312.91
2023-05-20T07:03:21.799Z,102308.34
2023-05-20T07:05:53.259Z,102310.91
2023-05-20T07:08:22.841Z,102293.56
2023-05-20T07:10:49.421Z,102298.88
2023-05-20T07:13:23.972Z,102298.81
2023-05-20T07:15:50.774Z,102304.63
2023-05-20T07:18:17.549Z,102284.25
2023-05-20T07:20:45.000Z,102288.81
2023-05-20T07:23:12.073Z,102310.56
2023-05-20T07:25:39.903Z,102289.13
2023-05-20T07:28:09.320Z,102296.84
2023-05-20T07:30:36.084Z,102295.50
2023-05-20T07:33:05.308Z,102286.88
2023-05-20T07:35:34.561Z,102291.31
2023-05-20T07:38:01.396Z,102295.19
2023-05-20T07:40:29.150Z,102276.63
2023-05-20T07:42:55.805Z,102272.22
2023-05-20T07:45:22.526Z,102274.97
2023-05-20T07:47:49.218Z,102280.72
2023-05-20T07:50:18.094Z,102267.28
2023-05-20T07:52:55.865Z,102284.03
2023-05-20T07:55:23.818Z,102277.13
2023-05-20T07:57:50.761Z,102286.88
2023-05-20T08:00:17.580Z,102272.31
2023-05-20T08:02:44.544Z,102273.50
2023-05-20T08:05:11.687Z,102271.00
2023-05-20T08:07:38.264Z,102272.06
2023-05-20T08:10:05.263Z,102280.53
2023-05-20T08:12:34.366Z,102270.22
2023-05-20T08:15:00.951Z,102273.06
2023-05-20T08:17:27.620Z,102270.88
2023-05-20T08:19:56.689Z,102266.88
2023-05-20T08:22:26.552Z,102274.97
2023-05-20T08:24:53.339Z,102258.91
2023-05-20T08:27:20.277Z,102264.69
2023-05-20T08:29:46.988Z,102261.94
2023-05-20T08:32:13.655Z,102244.47
2023-05-20T08:34:40.613Z,102237.19
2023-05-20T08:37:07.533Z,102258.00
2023-05-20T08:39:34.225Z,102243.78
2023-05-20T08:42:01.240Z,102251.72
2023-05-20T08:44:28.405Z,102240.16
2023-05-20T08:46:57.013Z,102250.06
2023-05-20T08:49:23.743Z,102254.31
2023-05-20T08:51:53.121Z,102251.38
2023-05-20T08:54:21.666Z,102241.53
2023-05-20T08:56:48.438Z,102248.16
2023-05-20T08:59:15.383Z,102245.16
2023-05-20T09:01:45.618Z,102242.31
2023-05-20T09:04:14.574Z,102239.38
2023-05-20T09:06:45.381Z,102236.84
2023-05-20T09:09:13.344Z,102225.78
2023-05-20T09:11:41.540Z,102237.91
2023-05-20T09:14:08.813Z,102233.66
2023-05-20T09:16:36.031Z,102224.56
2023-05-20T09:19:06.385Z,102229.59
2023-05-20T09:21:33.210Z,102228.59
2023-05-20T09:24:02.756Z,102228.03
2023-05-20T09:26:33.003Z,102201.97
2023-05-20T09:29:03.093Z,102222.25
2023-05-20T09:31:35.788Z,102207.97
2023-05-20T09:34:03.705Z,102210.13
2023-05-20T09:36:32.016Z,102246.72
2023-05-20T09:39:03.374Z,102227.09
2023-05-20T09:41:45.135Z,102216.31
2023-05-20T09:44:12.956Z,102231.31
2023-05-20T09:46:46.933Z,102226.84
2023-05-20T09:49:17.533Z,102233.91
2023-05-20T09:51:45.477Z,102223.22
2023-05-20T09:54:13.905Z,102226.81
2023-05-20T09:56:44.229Z,102215.88
2023-05-20T09:59:11.807Z,102228.66
2023-05-20T10:01:38.459Z,102221.34
2023-05-20T10:04:07.940Z,102211.59
2023-05-20T10:06:43.690Z,102234.78
2023-05-20T10:09:36.645Z,102214.41
2023-05-20T10:12:28.450Z,102211.72
2023-05-20T10:15:24.923Z,102213.66
2023-05-20T10:18:10.118Z,102202.56
2023-05-20T10:20:50.923Z,102196.09
2023-05-20T10:23:27.826Z,102190.94
2023-05-20T10:25:57.660Z,102171.22
2023-05-20T10:28:40.464Z,102193.63
2023-05-20T10:31:23.470Z,102203.00
2023-05-20T10:33:53.723Z,102199.09
2023-05-20T10:36:28.058Z,102187.81
2023-05-20T10:38:59.489Z,102191.38
2023-05-20T10:41:28.370Z,102158.69
2023-05-20T10:44:06.286Z,102178.81
2023-05-20T10:46:48.633Z,102167.44
2023-05-20T10:49:27.149Z,102162.34
2023-05-20T10:51:55.268Z,102167.75
2023-05-20T10:54:23.649Z,102164.88
2023-05-20T10:56:54.844Z,102157.09
2023-05-20T10:59:22.642Z,102170.50
2023-05-20T11:01:50.076Z,102169.81
2023-05-20T11:04:19.944Z,102173.00
2023-05-20T11:06:54.617Z,102172.06
2023-05-20T11:09:22.159Z,102165.16
2023-05-20T11:11:55.850Z,102119.38
2023-05-20T11:14:22.675Z,102162.22
2023-05-20T11:16:54.372Z,102142.09
2023-05-20T11:19:24.585Z,102150.19
2023-05-20T11:21:51.721Z,102145.09
2023-05-20T11:24:27.235Z,102136.66
2023-05-20T11:26:58.154Z,102136.41
2023-05-20T11:29:29.279Z,102137.47
2023-05-20T11:32:00.431Z,102115.22
2023-05-20T11:34:36.577Z,102138.31
2023-05-20T11:37:08.318Z,102132.66
2023-05-20T11:39:35.096Z,102130.38
2023-05-20T11:42:01.877Z,102125.00
2023-05-20T11:44:28.506Z,102113.09
2023-05-20T11:47:00.765Z,102124.13
2023-05-20T11:49:28.223Z,102117.66
2023-05-20T11:51:55.526Z,102120.13
2023-05-20T11:54:24.180Z,102116.88
2023-05-20T11:56:50.958Z,102115.69
2023-05-20T11:59:17.626Z,102110.72
2023-05-20T12:01:44.491Z,102106.22
2023-05-20T12:04:13.417Z,102106.13
2023-05-20T12:06:40.315Z,102106.97
2023-05-20T12:09:10.055Z,102096.41
2023-05-20T12:11:39.766Z,102095.19
2023-05-20T12:14:07.000Z,102105.69
2023-05-20T12:16:38.128Z,102096.75
2023-05-20T12:19:05.526Z,102087.47
2023-05-20T12:21:34.983Z,102087.06
2023-05-20T12:24:06.883Z,102081.81
2023-05-20T12:26:35.281Z,102078.03
2023-05-20T12:29:01.924Z,102094.31
2023-05-20T12:31:28.512Z,102089.53
2023-05-20T12:33:57.820Z,102090.81
2023-05-20T12:36:24.621Z,102083.41
2023-05-20T12:38:51.407Z,102084.06
2023-05-20T12:41:18.390Z,102076.38
2023-05-20T12:43:45.026Z,102077.84
2023-05-20T12:46:11.686Z,102082.94
2023-05-20T12:48:43.155Z,102082.97
2023-05-20T12:51:09.790Z,102082.97
2023-05-20T12:53:36.571Z,102077.41
2023-05-20T12:56:04.592Z,102073.75
2023-05-20T12:58:32.610Z,102075.84
2023-05-20T13:00:59.225Z,102085.22
2023-05-20T13:03:26.033Z,102074.75
2023-05-20T13:05:52.706Z,102083.69
2023-05-20T13:08:19.638Z,102073.59
2023-05-20T13:10:46.289Z,102071.88
2023-05-20T13:13:21.405Z,102078.06
2023-05-20T13:15:51.774Z,102076.06
2023-05-20T13:18:19.265Z,102075.78
2023-05-20T13:20:46.263Z,102060.03
2023-05-20T13:23:12.994Z,102073.22
2023-05-20T13:25:39.641Z,102077.53
2023-05-20T13:28:06.603Z,102064.63
2023-05-20T13:30:33.676Z,102056.31
2023-05-20T13:33:00.533Z,102071.22
2023-05-20T13:35:27.371Z,102053.19
2023-05-20T13:37:54.044Z,102064.31
2023-05-20T13:40:20.795Z,102068.00
2023-05-20T13:42:47.436Z,102050.53
2023-05-20T13:45:14.138Z,102059.47
2023-05-20T13:47:40.794Z,102066.59
2023-05-20T13:50:08.253Z,102051.25
2023-05-20T13:52:35.278Z,102049.78
2023-05-20T13:55:02.058Z,102046.91
2023-05-20T13:57:28.840Z,102052.31
2023-05-20T13:59:57.775Z,102041.19
2023-05-20T14:02:24.587Z,101978.09
2023-05-20T14:04:51.375Z,102026.97
2023-05-20T14:07:18.102Z,102027.78
2023-05-20T14:09:45.946Z,102033.22
2023-05-20T14:12:12.916Z,102026.78
2023-05-20T14:14:39.551Z,102014.72
2023-05-20T14:17:06.185Z,102018.59
2023-05-20T14:19:36.425Z,102027.53
2023-05-20T14:22:03.395Z,102031.97
2023-05-20T14:24:30.026Z,102027.00
2023-05-20T14:26:56.826Z,102019.03
2023-05-20T14:29:23.582Z,102022.41
2023-05-20T14:31:50.250Z,102015.97
2023-05-20T14:34:17.054Z,102019.09
2023-05-20T14:36:44.563Z,102017.34
2023-05-20T14:39:13.541Z,102009.91
2023-05-20T14:41:42.539Z,102017.72
2023-05-20T14:44:09.235Z,101999.03
2023-05-20T14:46:36.131Z,101997.59
2023-05-20T14:49:02.827Z,101999.88
2023-05-20T14:51:29.486Z,101992.50
2023-05-20T14:53:58.856Z,101988.56
2023-05-20T14:56:27.915Z,101999.69
2023-05-20T14:58:57.062Z,101992.72
2023-05-20T15:01:23.763Z,101993.56
2023-05-20T15:03:53.499Z,101991.94
2023-05-20T15:06:20.330Z,101987.63
2023-05-20T15:08:47.597Z,101987.13
2023-05-20T15:11:16.532Z,101965.25
2023-05-20T15:13:44.238Z,101973.63
2023-05-20T15:16:11.135Z,101984.56
2023-05-20T15:18:38.024Z,101972.47
2023-05-20T15:21:05.876Z,101957.44
2023-05-20T15:23:34.717Z,101967.31
2023-05-20T15:26:03.658Z,101959.84
2023-05-20T15:28:30.244Z,101981.22
2023-05-20T15:30:57.221Z,101954.41
2023-05-20T15:33:23.907Z,101964.44
2023-05-20T15:35:50.624Z,101960.06
2023-05-20T15:38:19.681Z,101956.34
2023-05-20T15:40:47.456Z,101954.38
2023-05-20T15:43:14.107Z,101947.47
2023-05-20T15:45:40.839Z,101955.81
2023-05-20T15:48:10.150Z,101944.13
2023-05-20T15:50:37.423Z,101954.13
2023-05-20T15:53:08.185Z,101945.25
2023-05-20T15:55:35.850Z,101943.56
2023-05-20T15:58:03.010Z,101931.84
2023-05-20T16:00:29.943Z,101923.72
2023-05-20T16:02:56.796Z,101930.56
2023-05-20T16:05:26.881Z,101936.13
2023-05-20T16:07:53.577Z,101927.53
2023-05-20T16:10:20.594Z,101925.25
2023-05-20T16:12:47.613Z,101919.56
2023-05-20T16:15:14.334Z,101930.69
2023-05-20T16:17:44.677Z,101939.91
2023-05-20T16:20:12.534Z,101931.91
2023-05-20T16:22:39.230Z,101926.75
2023-05-20T16:25:06.403Z,101919.69
2023-05-20T16:27:33.208Z,101924.19
2023-05-20T16:30:00.280Z,101926.09
2023-05-20T16:32:27.246Z,101905.94
2023-05-20T16:34:54.857Z,101929.41
2023-05-20T16:37:21.530Z,101923.59
2023-05-20T16:39:48.323Z,101914.38
2023-05-20T16:42:15.250Z,101894.16
2023-05-20T16:44:41.983Z,101911.03
2023-05-20T16:47:11.414Z,101915.41
2023-05-20T16:49:38.090Z,101910.13
2023-05-20T16:52:05.235Z,101912.00
2023-05-20T16:54:32.783Z,101926.00
2023-05-20T16:56:59.424Z,101917.66
2023-05-20T16:59:28.620Z,101921.34
2023-05-20T17:01:55.336Z,101923.34
2023-05-20T17:04:22.293Z,101914.47
2023-05-20T17:06:50.309Z,101919.06
2023-05-20T17:09:17.134Z,101926.59
2023-05-20T17:11:44.452Z,101921.44
2023-05-20T17:14:11.237Z,101890.31
2023-05-20T17:16:37.999Z,101932.44
2023-05-20T17:19:06.964Z,101931.97
2023-05-20T17:21:34.744Z,101921.63
2023-05-20T17:24:05.044Z,101931.38
2023-05-20T17:26:35.074Z,101940.56
2023-05-20T17:29:03.979Z,101941.16
2023-05-20T17:31:30.646Z,101934.84
2023-05-20T17:33:57.383Z,101949.69
2023-05-20T17:36:24.222Z,101946.78
2023-05-20T17:38:51.534Z,101957.88
2023-05-20T17:41:19.076Z,101914.59
2023-05-20T17:43:46.233Z,101941.34
2023-05-20T17:46:13.547Z,101952.63
2023-05-20T17:48:45.890Z,101969.88
2023-05-20T17:51:13.386Z,101959.34
2023-05-20T17:53:39.950Z,101974.16
2023-05-20T17:56:06.847Z,101966.41
2023-05-20T17:58:33.870Z,101980.06
2023-05-20T18:01:00.563Z,101973.53
2023-05-20T18:03:27.910Z,101970.84
2023-05-20T18:05:56.383Z,101974.38
2023-05-20T18:08:25.439Z,101963.19
2023-05-20T18:10:53.525Z,101976.53
2023-05-20T18:13:22.726Z,101980.75
2023-05-20T18:15:49.378Z,101984.91
2023-05-20T18:18:16.094Z,101980.19
2023-05-20T18:20:45.024Z,101975.09
2023-05-20T18:23:14.029Z,101977.50
2023-05-20T18:25:42.561Z,101981.41
2023-05-20T18:28:09.813Z,101976.25
2023-05-20T18:30:36.907Z,101979.66
2023-05-20T18:33:03.861Z,101966.59
2023-05-20T18:35:31.120Z,101978.75
2023-05-20T18:37:57.968Z,101968.38
2023-05-20T18:40:25.367Z,101954.47
2023-05-20T18:42:52.011Z,101962.84
2023-05-20T18:45:21.948Z,101956.25
2023-05-20T18:47:48.954Z,101977.63
2023-05-20T18:50:16.214Z,101968.88
2023-05-20T18:52:42.930Z,101978.81
2023-05-20T18:55:09.793Z,101973.50
2023-05-20T18:57:36.382Z,101960.94
2023-05-20T19:00:04.723Z,101920.78
2023-05-20T19:02:31.503Z,101967.41
2023-05-20T19:05:00.199Z,101969.81
2023-05-20T19:07:29.110Z,101927.56
2023-05-20T19:09:56.957Z,101981.72
2023-05-20T19:12:25.933Z,101979.53
2023-05-20T19:14:55.031Z,101968.81
2023-05-20T19:17:21.908Z,101981.44
2023-05-20T19:19:48.945Z,101984.91
2023-05-20T19:22:17.832Z,101989.22
2023-05-20T19:24:44.676Z,101989.06
2023-05-20T19:27:11.398Z,101998.91
2023-05-20T19:29:38.102Z,102000.63
2023-05-20T19:32:05.021Z,101990.63
2023-05-20T19:34:31.713Z,102007.84
2023-05-20T19:36:58.533Z,102009.59
2023-05-20T19:39:25.667Z,102016.78
2023-05-20T19:41:53.487Z,102012.47
2023-05-20T19:44:20.168Z,102000.69
2023-05-20T19:46:47.849Z,102017.09
2023-05-20T19:49:14.719Z,101998.41
2023-05-20T19:51:41.817Z,102014.28
2023-05-20T19:54:10.878Z,101947.63
2023-05-20T19:56:40.105Z,102021.69
2023-05-20T19:59:09.390Z,102025.09
2023-05-20T20:01:36.404Z,102001.59
2023-05-20T20:04:03.605Z,101981.75
2023-05-20T20:06:30.483Z,102013.22
2023-05-20T20:08:57.610Z,101986.75
2023-05-20T20:11:24.673Z,102007.53
2023-05-20T20:13:51.673Z,102007.69
2023-05-20T20:16:18.494Z,102009.25
2023-05-20T20:18:45.340Z,102001.09
2023-05-20T20:21:15.171Z,101992.47
2023-05-20T20:23:43.454Z,101991.09
2023-05-20T20:26:13.837Z,102013.75
2023-05-20T20:28:40.750Z,102005.78
2023-05-20T20:31:07.652Z,102010.28
2023-05-20T20:33:34.563Z,101991.97
2023-05-20T20:36:02.562Z,101989.38
2023-05-20T20:38:29.404Z,101993.91
2023-05-20T20:40:56.456Z,102006.00
2023-05-20T20:43:28.799Z,102009.44
2023-05-20T20:45:56.978Z,102000.63
2023-05-20T20:48:27.285Z,102004.97
2023-05-20T20:50:54.578Z,101982.13
2023-05-20T20:53:21.970Z,102016.50
2023-05-20T20:55:51.236Z,102017.69
2023-05-20T20:58:18.362Z,102018.34
2023-05-20T21:00:48.889Z,102015.91
2023-05-20T21:03:16.032Z,102005.09
2023-05-20T21:05:42.907Z,101993.47
2023-05-20T21:08:10.069Z,102009.50
2023-05-20T21:10:38.301Z,101973.59
2023-05-20T21:13:05.448Z,101994.34
2023-05-20T21:15:32.223Z,101959.75
2023-05-20T21:18:01.162Z,101987.22
2023-05-20T21:20:28.283Z,101994.97
2023-05-20T21:22:55.196Z,101982.69
2023-05-20T21:25:22.075Z,101983.75
2023-05-20T21:27:48.864Z,101959.47
2023-05-20T21:30:16.564Z,101967.56
2023-05-20T21:32:43.674Z,101978.97
2023-05-20T21:35:10.688Z,101969.78
2023-05-20T21:37:37.531Z,101935.19
2023-05-20T21:40:05.003Z,101967.25
2023-05-20T21:42:34.241Z,101958.41
2023-05-20T21:45:01.283Z,101969.41
2023-05-20T21:47:33.270Z,101964.84
2023-05-20T21:50:00.622Z,101960.72
2023-05-20T21:52:30.049Z,101967.94
2023-05-20T21:55:04.075Z,101969.13
2023-05-20T21:57:32.937Z,101965.44
2023-05-20T22:00:01.073Z,101953.66
2023-05-20T22:02:28.149Z,101957.59
2023-05-20T22:05:01.342Z,101936.31
2023-05-20T22:07:28.244Z,101961.69
2023-05-20T22:09:54.987Z,101944.16
2023-05-20T22:12:22.044Z,101970.03
2023-05-20T22:14:54.078Z,101967.75
2023-05-20T22:17:21.760Z,101959.13
2023-05-20T22:19:50.000Z,101950.22
2023-05-20T22:22:17.161Z,101963.78
2023-05-20T22:24:48.280Z,101945.09
2023-05-20T22:27:15.207Z,101969.19
2023-05-20T22:29:44.699Z,101971.56
2023-05-20T22:32:11.555Z,101942.72
2023-05-20T22:34:39.391Z,101966.13
2023-05-20T22:37:09.295Z,101955.88
2023-05-20T22:39:36.586Z,101949.75
2023-05-20T22:42:03.476Z,101958.16
2023-05-20T22:44:30.340Z,101931.34
2023-05-20T22:46:57.343Z,101950.94
2023-05-20T22:49:25.154Z,101945.00
2023-05-20T22:51:53.137Z,101911.06
2023-05-20T22:54:24.563Z,101891.16
2023-05-20T22:56:58.256Z,101923.16
2023-05-20T22:59:26.110Z,101929.69
2023-05-20T23:01:53.382Z,101937.34
2023-05-20T23:04:20.231Z,101925.94
2023-05-20T23:06:47.192Z,101915.16
2023-05-20T23:09:14.220Z,101901.06
2023-05-20T23:11:40.911Z,101916.63
2023-05-20T23:14:07.829Z,101923.13
2023-05-20T23:16:36.408Z,101921.00
2023-05-20T23:19:03.599Z,101922.16
2023-05-20T23:21:31.888Z,101914.50
2023-05-20T23:24:01.355Z,101883.50
2023-05-20T23:26:30.046Z,101904.56
2023-05-20T23:28:56.910Z,101900.00
2023-05-20T23:31:23.765Z,101920.16
2023-05-20T23:33:50.642Z,101910.50
2023-05-20T23:36:17.690Z,101907.19
2023-05-20T23:38:44.980Z,101914.41
2023-05-20T23:41:11.903Z,101917.16
2023-05-20T23:43:41.296Z,101914.41
2023-05-20T23:46:08.258Z,101909.94
2023-05-20T23:48:36.159Z,101903.72
2023-05-20T23:51:05.608Z,101910.50
2023-05-20T23:53:32.646Z,101884.41
2023-05-20T23:55:59.334Z,101906.19
2023-05-20T23:58:26.330Z,101907.19
